Time;durP1;ratioP1;P1;durP2;ratioP2;P2;SDS_P1;SDS_P2;PMS_P1;PMS_P2;Temp;Humidity;BMP_temperature;BMP_pressure;BME280_temperature;BME280_humidity;BME280_pressure;Samples;Min_cycle;Max_cycle;Signal;HPM_P1;HPM_P2
2024/04/15 00:01:53;;;;;;;6.00;5.40;;;16.00;99.90;;;;;;5497195;26;20220;-39
2024/04/15 00:04:19;;;;;;;6.57;5.97;;;16.00;99.90;;;;;;5532180;26;20776;-40
2024/04/15 00:06:44;;;;;;;6.60;5.63;;;15.90;99.90;;;;;;5531741;26;20649;-38
2024/04/15 00:09:10;;;;;;;7.47;6.73;;;15.90;99.90;;;;;;5497870;26;20793;-42
2024/04/15 00:11:35;;;;;;;7.10;6.37;;;15.90;99.90;;;;;;5530771;26;20231;-39
2024/04/15 00:14:01;;;;;;;6.93;6.03;;;15.90;99.90;;;;;;5530907;26;20212;-39
2024/04/15 00:16:27;;;;;;;6.40;5.80;;;15.90;99.90;;;;;;5530341;26;20323;-40
2024/04/15 00:18:52;;;;;;;6.40;5.90;;;15.90;99.90;;;;;;5529886;26;20273;-39
2024/04/15 00:21:18;;;;;;;9.20;6.23;;;15.80;99.90;;;;;;5497976;26;20240;-38
2024/04/15 00:23:43;;;;;;;7.17;6.57;;;15.80;99.90;;;;;;5531006;26;20281;-39
2024/04/15 00:26:09;;;;;;;7.57;6.53;;;15.80;99.90;;;;;;5530455;26;20223;-39
2024/04/15 00:28:35;;;;;;;8.00;7.40;;;15.80;99.90;;;;;;5530637;26;20220;-38
2024/04/15 00:31:00;;;;;;;7.80;6.53;;;15.80;99.90;;;;;;5497762;26;20871;-38
2024/04/15 00:33:26;;;;;;;6.07;5.57;;;15.80;99.90;;;;;;5530506;26;20227;-39
2024/04/15 00:35:51;;;;;;;7.57;5.20;;;15.80;99.90;;;;;;5529819;26;20227;-38
2024/04/15 00:38:17;;;;;;;5.00;4.60;;;15.80;99.90;;;;;;5497694;26;20220;-40
2024/04/15 00:40:43;;;;;;;5.10;4.60;;;15.80;99.90;;;;;;5530545;26;20313;-39
2024/04/15 00:43:09;;;;;;;4.97;4.50;;;15.80;99.90;;;;;;5530742;26;20262;-40
2024/04/15 00:45:34;;;;;;;5.60;4.80;;;15.80;99.90;;;;;;5529778;26;20594;-39
2024/04/15 00:48:04;;;;;;;5.20;4.70;;;15.80;99.90;;;;;;5531568;25;20504;-38
2024/04/15 00:50:32;;;;;;;5.90;5.30;;;15.80;99.90;;;;;;5531488;26;20262;-38
2024/04/15 00:52:58;;;;;;;6.03;4.50;;;15.80;99.90;;;;;;5498587;26;20517;-37
2024/04/15 00:55:25;;;;;;;5.63;4.77;;;15.80;99.90;;;;;;5498731;26;20891;-40
2024/04/15 00:57:52;;;;;;;5.30;4.13;;;15.90;99.90;;;;;;5498288;26;20468;-40
2024/04/15 01:00:18;;;;;;;5.00;4.50;;;15.90;99.90;;;;;;5498260;26;20472;-38
2024/04/15 01:02:43;;;;;;;4.83;3.50;;;15.80;88.50;;;;;;5530156;26;20502;-39
2024/04/15 01:05:12;;;;;;;3.80;3.40;;;15.90;1.00;;;;;;5495726;26;20609;-40
2024/04/15 01:07:38;;;;;;;4.40;4.00;;;15.90;1.00;;;;;;5529530;26;20454;-38
2024/04/15 01:10:04;;;;;;;3.90;3.50;;;15.90;1.00;;;;;;5529225;26;20490;-40
2024/04/15 01:12:30;;;;;;;5.40;4.10;;;15.90;1.00;;;;;;5529256;26;20282;-38
2024/04/15 01:14:56;;;;;;;3.90;3.47;;;15.90;1.00;;;;;;5529605;26;20456;-39
2024/04/15 01:17:22;;;;;;;3.17;2.70;;;15.90;99.90;;;;;;5529503;26;20565;-39
2024/04/15 01:19:48;;;;;;;3.47;2.80;;;15.90;99.90;;;;;;5497368;26;20243;-38
2024/04/15 01:22:22;;;;;;;5.23;2.50;;;15.90;99.90;;;;;;5528623;26;20265;-40
2024/04/15 01:24:49;;;;;;;3.50;3.17;;;15.80;99.90;;;;;;5527854;26;20839;-40
2024/04/15 01:27:15;;;;;;;3.20;2.83;;;15.80;99.90;;;;;;5528081;26;20797;-39
2024/04/15 01:29:40;;;;;;;4.07;2.80;;;15.80;99.90;;;;;;5528461;26;20452;-40
2024/04/15 01:32:06;;;;;;;3.30;2.30;;;15.80;99.90;;;;;;5527608;26;20492;-39
2024/04/15 01:34:32;;;;;;;3.40;2.50;;;15.70;99.90;;;;;;5526380;26;20223;-39
2024/04/15 01:36:57;;;;;;;3.30;3.00;;;15.70;99.90;;;;;;5494172;26;20269;-39
2024/04/15 01:39:23;;;;;;;3.90;3.50;;;15.70;99.90;;;;;;5527792;26;20278;-38
2024/04/15 01:41:49;;;;;;;2.90;2.63;;;15.70;99.90;;;;;;5527399;26;20228;-39
2024/04/15 01:44:14;;;;;;;3.87;3.27;;;15.60;99.90;;;;;;5527714;26;20208;-40
2024/04/15 01:46:40;;;;;;;3.97;3.23;;;15.60;99.90;;;;;;5526285;26;20311;-39
2024/04/15 01:49:05;;;;;;;3.30;2.63;;;15.50;99.90;;;;;;5526165;26;20609;-38
2024/04/15 01:51:31;;;;;;;3.33;2.93;;;15.50;99.90;;;;;;5527005;26;20232;-40
2024/04/15 01:53:56;;;;;;;4.83;2.80;;;15.50;99.90;;;;;;5527188;26;20277;-39
2024/04/15 01:56:22;;;;;;;3.47;3.10;;;15.40;99.90;;;;;;5494503;26;20223;-39
2024/04/15 01:58:48;;;;;;;4.97;3.03;;;15.40;99.90;;;;;;5527084;26;20722;-40
2024/04/15 02:01:13;;;;;;;3.87;3.13;;;15.40;99.90;;;;;;5495952;26;20275;-38
2024/04/15 02:03:40;;;;;;;4.20;2.80;;;15.40;99.90;;;;;;5529308;26;20231;-38
2024/04/15 02:06:06;;;;;;;3.33;2.80;;;15.30;1.00;;;;;;5529229;26;20335;-39
2024/04/15 02:08:31;;;;;;;4.20;2.80;;;15.30;1.00;;;;;;5529269;25;20456;-39
2024/04/15 02:10:57;;;;;;;5.30;3.03;;;15.20;1.00;;;;;;5529047;26;20254;-39
2024/04/15 02:13:23;;;;;;;5.37;2.80;;;15.20;1.00;;;;;;5530434;26;20228;-39
2024/04/15 02:15:48;;;;;;;3.50;3.20;;;15.20;1.00;;;;;;5496499;26;20644;-40
2024/04/15 02:18:14;;;;;;;5.43;2.63;;;15.20;1.00;;;;;;5527002;26;20393;-38
2024/04/15 02:20:40;;;;;;;3.97;2.50;;;15.20;1.00;;;;;;5528897;26;20215;-39
2024/04/15 02:23:05;;;;;;;3.67;3.37;;;15.20;1.00;;;;;;5527744;26;20220;-39
2024/04/15 02:25:31;;;;;;;4.57;3.10;;;15.20;1.00;;;;;;5530856;26;20550;-39
2024/04/15 02:27:57;;;;;;;3.77;2.73;;;15.30;1.00;;;;;;5532184;26;20307;-39
2024/04/15 02:30:23;;;;;;;4.33;3.40;;;15.30;1.00;;;;;;5530888;26;20274;-39
2024/04/15 02:32:48;;;;;;;3.27;2.83;;;15.30;1.00;;;;;;5530016;26;20523;-39
2024/04/15 02:35:14;;;;;;;3.17;2.87;;;15.30;1.00;;;;;;5529603;26;20645;-38
2024/04/15 02:37:39;;;;;;;3.73;3.00;;;15.20;1.00;;;;;;5530808;26;20234;-39
2024/04/15 02:40:06;;;;;;;4.93;3.03;;;15.20;1.00;;;;;;5531179;26;20634;-39
2024/04/15 02:42:32;;;;;;;4.03;2.80;;;15.10;99.90;;;;;;5532107;26;20224;-38
2024/04/15 02:44:58;;;;;;;3.20;2.90;;;15.00;99.90;;;;;;5532208;26;20687;-39
2024/04/15 02:47:24;;;;;;;6.07;2.90;;;15.00;99.90;;;;;;5499012;26;20874;-39
2024/04/15 02:49:49;;;;;;;5.37;3.20;;;15.00;99.90;;;;;;5532765;26;20656;-39
2024/04/15 02:52:15;;;;;;;4.90;2.97;;;15.00;99.90;;;;;;5531993;26;20231;-39
2024/04/15 02:58:03;;;;;;;5.00;3.70;;;15.00;99.90;;;;;;5531972;25;20266;-40
2024/04/15 03:00:29;;;;;;;3.60;2.73;;;15.00;7.50;;;;;;5533238;26;20468;-39
2024/04/15 03:02:55;;;;;;;5.13;2.93;;;15.00;2.10;;;;;;5532308;26;20312;-39
2024/04/15 03:05:20;;;;;;;4.37;3.30;;;15.00;1.00;;;;;;5532336;26;20464;-40
2024/04/15 03:07:49;;;;;;;4.00;3.57;;;15.00;1.00;;;;;;5530615;26;20610;-39
2024/04/15 03:10:14;;;;;;;3.50;2.80;;;15.00;1.00;;;;;;5500209;26;20223;-39
2024/04/15 03:12:40;;;;;;;5.33;3.17;;;14.90;1.00;;;;;;5533109;26;21014;-39
2024/04/15 03:15:06;;;;;;;4.60;3.00;;;14.90;1.00;;;;;;5531954;26;20614;-39
2024/04/15 03:17:31;;;;;;;3.73;3.40;;;14.90;12.70;;;;;;5532465;26;20605;-38
2024/04/15 03:19:57;;;;;;;3.97;3.50;;;14.90;67.00;;;;;;5500305;26;20664;-38
2024/04/15 03:22:22;;;;;;;5.17;3.20;;;14.90;97.80;;;;;;5499883;26;20236;-39
2024/04/15 03:24:48;;;;;;;4.60;3.27;;;14.80;99.90;;;;;;5532286;26;20231;-38
2024/04/15 03:27:14;;;;;;;4.13;3.37;;;14.80;99.90;;;;;;5532261;26;20332;-38
2024/04/15 03:29:40;;;;;;;3.33;3.03;;;14.90;99.90;;;;;;5499500;26;20464;-38
2024/04/15 03:32:06;;;;;;;4.70;3.57;;;14.90;99.90;;;;;;5498903;26;20215;-41
2024/04/15 03:34:31;;;;;;;4.13;3.20;;;14.80;99.90;;;;;;5531802;26;20308;-39
2024/04/15 03:36:57;;;;;;;6.60;3.40;;;14.80;99.90;;;;;;5530922;26;20456;-40
2024/04/15 03:39:22;;;;;;;5.57;3.40;;;14.70;99.90;;;;;;5530718;26;20274;-38
2024/04/15 03:41:48;;;;;;;4.93;4.13;;;14.70;99.90;;;;;;5530307;26;20273;-39
2024/04/15 03:44:13;;;;;;;5.57;3.50;;;14.70;99.90;;;;;;5528359;26;20636;-42
2024/04/15 03:46:39;;;;;;;4.70;3.10;;;14.70;99.90;;;;;;5527058;26;20649;-40
2024/04/15 03:49:05;;;;;;;6.53;3.53;;;14.60;99.90;;;;;;5527599;26;20228;-38
2024/04/15 03:51:30;;;;;;;6.03;3.30;;;14.60;99.90;;;;;;5526147;26;20656;-40
2024/04/15 03:53:56;;;;;;;5.40;3.20;;;14.50;44.00;;;;;;5527457;26;20223;-38
2024/04/15 03:56:21;;;;;;;6.67;3.10;;;14.50;82.70;;;;;;5527904;26;20260;-40
2024/04/15 03:58:47;;;;;;;3.10;2.80;;;14.50;29.10;;;;;;5529525;26;20323;-39
2024/04/15 04:01:12;;;;;;;5.67;2.90;;;14.50;1.00;;;;;;5530371;26;20609;-39
2024/04/15 04:03:40;;;;;;;3.70;2.60;;;14.40;1.00;;;;;;5531180;26;20239;-39
2024/04/15 04:06:06;;;;;;;3.17;2.87;;;14.40;11.40;;;;;;5529388;26;20262;-39
2024/04/15 04:08:31;;;;;;;5.07;3.30;;;14.40;32.70;;;;;;5528826;26;20505;-38
2024/04/15 04:11:04;;;;;;;3.47;3.17;;;14.40;42.30;;;;;;5528911;26;20941;-39
2024/04/15 04:13:31;;;;;;;3.43;2.77;;;14.30;99.90;;;;;;5527723;26;20215;-40
2024/04/15 04:15:57;;;;;;;3.07;2.77;;;14.30;99.90;;;;;;5498352;26;20842;-39
2024/04/15 04:18:22;;;;;;;3.53;2.53;;;14.30;99.90;;;;;;5531760;26;20556;-39
2024/04/15 04:20:48;;;;;;;4.00;3.17;;;14.30;99.90;;;;;;5531174;26;20672;-38
2024/04/15 04:23:13;;;;;;;3.57;2.70;;;14.30;99.90;;;;;;5530313;26;20212;-38
2024/04/15 04:25:39;;;;;;;8.87;4.40;;;14.30;99.90;;;;;;5530645;26;20254;-40
2024/04/15 04:28:05;;;;;;;7.50;3.60;;;14.30;99.90;;;;;;5530013;26;20486;-38
2024/04/15 04:30:33;;;;;;;13.13;5.93;;;14.30;99.90;;;;;;5530072;26;20223;-39
2024/04/15 04:32:59;;;;;;;7.67;4.63;;;14.30;99.90;;;;;;5527946;26;20906;-39
2024/04/15 04:35:24;;;;;;;6.53;3.27;;;14.30;99.90;;;;;;5528297;26;20517;-39
2024/04/15 04:37:50;;;;;;;5.80;3.43;;;14.40;99.90;;;;;;5497122;26;20245;-39
2024/04/15 04:40:15;;;;;;;4.27;2.33;;;14.40;70.00;;;;;;5529081;26;20614;-38
2024/04/15 04:42:44;;;;;;;3.83;2.80;;;14.40;1.00;;;;;;5528303;26;20274;-39
2024/04/15 04:45:10;;;;;;;3.60;2.93;;;14.40;1.00;;;;;;5526984;26;20231;-40
2024/04/15 04:47:35;;;;;;;6.63;2.57;;;14.40;99.90;;;;;;5526517;26;20574;-39
2024/04/15 04:50:01;;;;;;;5.83;2.33;;;14.40;99.90;;;;;;5527798;26;20267;-40
2024/04/15 04:52:26;;;;;;;3.90;2.60;;;14.40;99.90;;;;;;5527915;26;20396;-39
2024/04/15 04:54:52;;;;;;;2.77;2.30;;;14.40;99.90;;;;;;5493853;26;20602;-38
2024/04/15 04:57:17;;;;;;;3.30;2.03;;;14.40;99.90;;;;;;5525571;26;20232;-40
2024/04/15 04:59:43;;;;;;;6.10;3.10;;;14.30;99.90;;;;;;5524475;26;20282;-39
2024/04/15 05:02:10;;;;;;;3.37;2.43;;;14.30;99.90;;;;;;5495841;26;20501;-40
2024/04/15 05:04:36;;;;;;;2.90;2.47;;;14.40;99.90;;;;;;5494205;26;20636;-42
2024/04/15 05:07:01;;;;;;;4.23;2.60;;;14.40;45.60;;;;;;5526575;26;20461;-40
2024/04/15 05:09:27;;;;;;;2.40;1.90;;;14.40;16.10;;;;;;5524407;26;20513;-39
2024/04/15 05:11:52;;;;;;;3.83;2.80;;;14.50;1.00;;;;;;5524320;26;20270;-41
2024/04/15 05:14:18;;;;;;;4.07;2.50;;;14.50;1.00;;;;;;5491703;26;20220;-41
2024/04/15 05:16:44;;;;;;;3.00;2.63;;;14.50;1.00;;;;;;5521129;26;20216;-38
2024/04/15 05:19:09;;;;;;;2.60;2.20;;;14.50;1.00;;;;;;5489281;26;20278;-38
2024/04/15 05:21:35;;;;;;;3.60;2.30;;;14.50;1.00;;;;;;5523410;26;20282;-39
2024/04/15 05:24:01;;;;;;;6.50;2.23;;;14.50;1.00;;;;;;5525664;26;20279;-41
2024/04/15 05:26:27;;;;;;;3.10;1.90;;;14.40;99.90;;;;;;5492986;26;20530;-41
2024/04/15 05:28:53;;;;;;;3.70;1.90;;;14.30;1.00;;;;;;5528853;26;20432;-39
2024/04/15 05:31:18;;;;;;;3.70;2.00;;;14.20;1.00;;;;;;5526634;26;20641;-39
2024/04/15 05:33:44;;;;;;;3.17;2.37;;;14.20;1.00;;;;;;5496381;26;20534;-39
2024/04/15 05:36:09;;;;;;;4.00;2.63;;;14.10;64.60;;;;;;5526078;26;20228;-39
2024/04/15 05:38:36;;;;;;;3.37;2.20;;;14.10;99.90;;;;;;5528074;26;20753;-43
2024/04/15 05:41:03;;;;;;;4.30;2.60;;;14.10;1.00;;;;;;5529776;26;20291;-42
2024/04/15 05:43:29;;;;;;;4.03;2.37;;;14.10;1.00;;;;;;5526514;26;20433;-39
2024/04/15 05:45:54;;;;;;;6.40;2.70;;;14.00;1.00;;;;;;5529444;26;20499;-42
2024/04/15 05:48:20;;;;;;;3.43;2.73;;;14.00;1.00;;;;;;5523131;26;20266;-38
2024/04/15 05:50:46;;;;;;;3.40;2.67;;;14.10;19.00;;;;;;5492289;26;20228;-37
2024/04/15 05:53:11;;;;;;;2.97;2.20;;;14.10;28.90;;;;;;5494423;26;20266;-38
2024/04/15 05:55:39;;;;;;;3.40;2.80;;;14.20;1.00;;;;;;5524601;26;20582;-37
2024/04/15 05:58:05;;;;;;;3.50;2.13;;;14.20;99.90;;;;;;5492724;26;20477;-39
2024/04/15 06:00:30;;;;;;;4.13;2.10;;;14.10;99.90;;;;;;5528384;26;20506;-38
2024/04/15 06:02:56;;;;;;;6.23;2.47;;;14.10;1.00;;;;;;5529788;26;20604;-38
2024/04/15 06:05:24;;;;;;;2.67;2.23;;;14.10;1.00;;;;;;5531640;26;20262;-38
2024/04/15 06:07:50;;;;;;;4.40;2.00;;;14.20;1.00;;;;;;5525608;26;20250;-38
2024/04/15 06:10:16;;;;;;;2.33;2.00;;;14.30;1.00;;;;;;5529534;26;20444;-39
2024/04/15 06:12:41;;;;;;;3.87;2.27;;;14.30;1.00;;;;;;5529383;26;20529;-39
2024/04/15 06:15:07;;;;;;;3.23;2.07;;;14.30;71.00;;;;;;5527368;26;20270;-37
2024/04/15 06:17:33;;;;;;;5.40;2.77;;;14.10;1.00;;;;;;5529830;26;20224;-40
2024/04/15 06:19:58;;;;;;;2.73;1.60;;;14.10;1.00;;;;;;5528514;26;20219;-37
2024/04/15 06:22:24;;;;;;;1.93;1.77;;;14.00;1.00;;;;;;5528634;26;20291;-40
2024/04/15 06:24:49;;;;;;;3.03;1.97;;;13.90;1.00;;;;;;5530135;26;20253;-38
2024/04/15 06:27:16;;;;;;;2.60;1.77;;;13.80;99.90;;;;;;5530887;26;20447;-37
2024/04/15 06:29:41;;;;;;;2.70;1.83;;;13.80;1.00;;;;;;5528598;26;20277;-40
2024/04/15 06:32:07;;;;;;;3.57;2.07;;;13.70;1.00;;;;;;5532530;26;20440;-38
2024/04/15 06:34:33;;;;;;;5.70;2.30;;;13.70;99.90;;;;;;5469172;26;20254;-38
2024/04/15 06:36:58;;;;;;;3.83;2.23;;;13.70;1.00;;;;;;5528207;26;20466;-40
2024/04/15 06:39:24;;;;;;;3.57;1.90;;;13.70;99.90;;;;;;5526757;26;20508;-38
2024/04/15 06:41:50;;;;;;;3.87;2.03;;;13.70;1.00;;;;;;5497804;26;20223;-43
2024/04/15 06:44:16;;;;;;;3.20;2.43;;;13.70;1.80;;;;;;5530510;26;20842;-45
2024/04/15 06:46:42;;;;;;;4.60;2.63;;;13.90;1.00;;;;;;5528662;26;20257;-45
2024/04/15 06:49:08;;;;;;;3.77;2.20;;;14.00;1.00;;;;;;5528452;26;20565;-45
2024/04/15 06:51:36;;;;;;;3.80;2.17;;;14.30;99.90;;;;;;5496133;26;20460;-44
2024/04/15 06:54:01;;;;;;;4.90;2.80;;;14.60;92.00;;;;;;5499957;26;20228;-45
2024/04/15 06:56:27;;;;;;;6.40;2.40;;;14.90;99.90;;;;;;5528397;26;20504;-44
2024/04/15 06:58:52;;;;;;;3.27;2.20;;;15.00;99.90;;;;;;5525929;26;20227;-45
2024/04/15 07:01:19;;;;;;;4.43;2.27;;;15.20;1.00;;;;;;5525542;26;20223;-43
2024/04/15 07:03:44;;;;;;;5.73;1.80;;;15.20;70.10;;;;;;5527573;26;20571;-46
2024/04/15 07:06:10;;;;;;;4.77;2.53;;;15.00;1.00;;;;;;5528733;26;20676;-49
2024/04/15 07:08:36;;;;;;;4.33;2.20;;;15.00;34.80;;;;;;5528138;26;20338;-43
2024/04/15 07:11:01;;;;;;;2.17;1.83;;;15.00;1.00;;;;;;5528413;26;20275;-42
2024/04/15 07:13:29;;;;;;;4.37;2.30;;;15.00;99.90;;;;;;5494780;26;20224;-45
2024/04/15 07:15:55;;;;;;;4.60;2.83;;;14.90;44.40;;;;;;5528970;26;20265;-44
2024/04/15 07:18:21;;;;;;;5.27;2.27;;;14.80;99.90;;;;;;5530289;26;20586;-45
2024/04/15 07:20:46;;;;;;;5.67;2.77;;;15.00;99.90;;;;;;5529250;26;20468;-45
2024/04/15 07:23:12;;;;;;;3.87;2.23;;;15.00;1.00;;;;;;5530343;26;20212;-46
2024/04/15 07:25:37;;;;;;;3.50;2.30;;;15.00;99.90;;;;;;5527909;26;20605;-46
2024/04/15 07:28:03;;;;;;;5.30;2.40;;;14.90;1.00;;;;;;5530551;26;20266;-46
2024/04/15 07:30:29;;;;;;;2.93;2.13;;;14.80;1.00;;;;;;5529068;26;20468;-45
2024/04/15 07:32:55;;;;;;;4.40;2.50;;;14.50;99.90;;;;;;5529826;26;20706;-45
2024/04/15 07:35:21;;;;;;;4.60;2.93;;;14.40;90.90;;;;;;5528900;26;20328;-45
2024/04/15 07:37:46;;;;;;;7.47;3.17;;;14.30;99.90;;;;;;5526942;26;20519;-47
2024/04/15 07:40:12;;;;;;;5.67;3.30;;;14.30;1.00;;;;;;5528655;26;20235;-45
2024/04/15 07:42:41;;;;;;;4.07;2.33;;;14.20;1.00;;;;;;5530300;26;20223;-47
2024/04/15 07:45:07;;;;;;;5.87;3.20;;;14.30;1.00;;;;;;5530344;26;20464;-45
2024/04/15 07:47:32;;;;;;;5.10;2.80;;;14.50;99.90;;;;;;5529238;26;20456;-45
2024/04/15 07:49:58;;;;;;;5.97;3.00;;;14.80;1.00;;;;;;5530116;26;20215;-45
2024/04/15 07:52:23;;;;;;;7.43;3.40;;;14.70;1.00;;;;;;5497637;26;20262;-46
2024/04/15 07:54:50;;;;;;;3.17;2.63;;;14.70;1.00;;;;;;5529942;26;20231;-46
2024/04/15 07:57:16;;;;;;;3.27;3.00;;;14.80;1.00;;;;;;5530003;26;20239;-46
2024/04/15 07:59:41;;;;;;;5.50;3.43;;;14.80;99.90;;;;;;5529728;26;20534;-45
2024/04/15 08:02:08;;;;;;;4.43;3.17;;;14.50;1.00;;;;;;5528692;26;20212;-44
2024/04/15 08:04:35;;;;;;;4.97;3.10;;;14.50;99.90;;;;;;5495746;26;20215;-48
2024/04/15 08:07:00;;;;;;;6.30;3.73;;;14.50;1.00;;;;;;5529386;26;20460;-46
2024/04/15 08:09:26;;;;;;;6.53;3.93;;;14.70;1.00;;;;;;5496703;26;20516;-48
2024/04/15 08:11:51;;;;;;;8.30;3.27;;;14.80;1.00;;;;;;5528395;26;20493;-45
2024/04/15 08:14:20;;;;;;;5.63;3.67;;;15.00;99.90;;;;;;5526720;26;20215;-46
2024/04/15 08:16:46;;;;;;;5.70;3.43;;;15.10;99.90;;;;;;5527631;26;20211;-45
2024/04/15 08:19:11;;;;;;;4.23;3.70;;;15.10;99.90;;;;;;5527239;26;20897;-46
2024/04/15 08:21:37;;;;;;;5.27;3.30;;;15.30;99.90;;;;;;5494813;26;20334;-47
2024/04/15 08:24:03;;;;;;;4.17;2.80;;;15.20;62.60;;;;;;5527763;26;20686;-45
2024/04/15 08:26:28;;;;;;;6.43;3.40;;;15.30;99.90;;;;;;5527637;26;20274;-46
2024/04/15 08:28:54;;;;;;;3.50;2.30;;;15.40;35.60;;;;;;5527315;26;20320;-46
2024/04/15 08:31:19;;;;;;;4.20;3.00;;;15.60;76.60;;;;;;5527667;26;20270;-46
2024/04/15 08:33:45;;;;;;;5.27;3.13;;;15.80;99.90;;;;;;5495852;26;20711;-48
2024/04/15 08:36:12;;;;;;;6.17;3.50;;;15.90;99.90;;;;;;5527978;26;20227;-46
2024/04/15 08:38:40;;;;;;;5.30;3.40;;;15.90;1.00;;;;;;5527141;26;20274;-48
2024/04/15 08:41:07;;;;;;;13.73;3.37;;;15.70;1.00;;;;;;5527397;26;20441;-43
2024/04/15 08:43:33;;;;;;;4.97;3.50;;;15.80;1.00;;;;;;5496747;26;20501;-45
2024/04/15 08:46:00;;;;;;;4.97;2.87;;;16.00;98.00;;;;;;5527369;26;20483;-43
2024/04/15 08:48:26;;;;;;;5.90;3.30;;;16.30;26.80;;;;;;5527119;26;20816;-46
2024/04/15 08:50:57;;;;;;;8.17;3.50;;;16.40;1.00;;;;;;5529463;26;20504;-45
2024/04/15 08:53:23;;;;;;;7.43;3.47;;;16.60;99.90;;;;;;5527883;26;20533;-43
2024/04/15 08:55:49;;;;;;;4.00;2.80;;;16.90;20.60;;;;;;5529979;26;20518;-45
2024/04/15 08:58:14;;;;;;;8.50;2.97;;;17.10;1.00;;;;;;5528467;26;20709;-46
2024/04/15 09:00:41;;;;;;;6.03;2.77;;;17.20;99.90;;;;;;5526244;26;20227;-48
2024/04/15 09:03:07;;;;;;;3.60;2.77;;;17.50;99.90;;;;;;5494525;26;20231;-42
2024/04/15 09:05:33;;;;;;;4.10;3.10;;;17.80;75.90;;;;;;5527844;26;20541;-44
2024/04/15 09:07:59;;;;;;;7.07;3.47;;;17.90;1.00;;;;;;5527352;26;20448;-45
2024/04/15 09:10:25;;;;;;;3.53;2.67;;;17.90;1.00;;;;;;5528392;26;20436;-43
2024/04/15 09:12:52;;;;;;;7.53;3.20;;;17.30;1.00;;;;;;5525669;26;20818;-43
2024/04/15 09:15:22;;;;;;;4.27;3.43;;;17.40;1.00;;;;;;5526665;26;20569;-44
2024/04/15 09:17:50;;;;;;;6.07;3.53;;;17.40;1.00;;;;;;5526174;26;20335;-43
2024/04/15 09:20:16;;;;;;;3.37;2.90;;;17.60;1.00;;;;;;5528773;26;20692;-43
2024/04/15 09:22:42;;;;;;;3.70;3.00;;;17.50;1.00;;;;;;5497399;26;20526;-43
2024/04/15 09:25:08;;;;;;;7.80;3.57;;;17.30;1.00;;;;;;5494618;26;20448;-43
2024/04/15 09:27:33;;;;;;;4.30;2.87;;;16.80;1.00;;;;;;5529010;26;20235;-43
2024/04/15 09:29:59;;;;;;;5.63;3.33;;;16.80;40.80;;;;;;5529495;26;20509;-42
2024/04/15 09:32:25;;;;;;;7.40;3.27;;;16.90;19.50;;;;;;5464784;26;20317;-43
2024/04/15 09:34:59;;;;;;;5.50;3.00;;;16.90;54.40;;;;;;5528165;26;20865;-42
2024/04/15 09:37:25;;;;;;;3.53;3.23;;;16.80;25.50;;;;;;5527318;26;20232;-43
2024/04/15 09:39:52;;;;;;;3.43;3.13;;;16.70;58.20;;;;;;5528514;26;20452;-40
2024/04/15 09:42:19;;;;;;;6.00;3.10;;;16.60;99.90;;;;;;5496358;26;20866;-43
2024/04/15 09:44:47;;;;;;;3.63;3.00;;;16.60;99.90;;;;;;5528926;26;20523;-44
2024/04/15 09:47:13;;;;;;;3.60;3.30;;;16.40;99.90;;;;;;5498595;26;20511;-41
2024/04/15 09:49:39;;;;;;;4.67;2.90;;;16.40;99.90;;;;;;5529926;26;20665;-45
2024/04/15 09:52:20;;;;;;;7.30;3.37;;;16.50;99.90;;;;;;5498201;26;20550;-44
2024/04/15 09:54:46;;;;;;;5.70;2.93;;;16.40;99.90;;;;;;5497731;26;20999;-42
2024/04/15 09:57:19;;;;;;;7.73;3.00;;;16.30;99.90;;;;;;5496538;26;20870;-42
2024/04/15 09:59:52;;;;;;;5.30;3.00;;;16.30;99.90;;;;;;5528038;26;20491;-42
2024/04/15 10:02:36;;;;;;;4.43;3.20;;;16.50;99.90;;;;;;5527549;26;20448;-46
2024/04/15 10:05:14;;;;;;;4.03;2.83;;;16.70;99.90;;;;;;5493582;26;20449;-45
2024/04/15 10:07:40;;;;;;;3.77;2.60;;;16.60;99.90;;;;;;5492801;26;20440;-43
2024/04/15 10:10:07;;;;;;;5.20;2.50;;;16.70;91.70;;;;;;5493265;26;20519;-42
2024/04/15 10:12:33;;;;;;;3.87;2.50;;;16.70;45.70;;;;;;5475458;26;20748;-42
2024/04/15 10:15:00;;;;;;;4.63;2.50;;;16.80;93.30;;;;;;5490563;26;20514;-43
2024/04/15 10:17:26;;;;;;;2.83;2.03;;;17.00;1.00;;;;;;5459984;26;20330;-43
2024/04/15 10:19:52;;;;;;;3.33;2.43;;;17.00;1.00;;;;;;5491201;26;20438;-42
2024/04/15 10:22:17;;;;;;;7.80;2.70;;;17.00;1.00;;;;;;5490960;26;20505;-42
2024/04/15 10:24:44;;;;;;;4.07;2.47;;;16.80;1.00;;;;;;5490642;26;20228;-41
2024/04/15 10:27:10;;;;;;;2.90;2.60;;;16.70;1.00;;;;;;5488993;26;20263;-42
2024/04/15 10:29:40;;;;;;;4.73;2.50;;;16.60;3.30;;;;;;5456538;26;20449;-43
2024/04/15 10:32:07;;;;;;;3.20;2.70;;;16.40;37.40;;;;;;5456076;26;21198;-43
2024/04/15 10:34:40;;;;;;;5.90;2.90;;;16.30;99.90;;;;;;5487335;26;20509;-45
2024/04/15 10:37:08;;;;;;;5.03;2.80;;;16.00;99.90;;;;;;5486331;26;20560;-43
2024/04/15 10:39:43;;;;;;;3.90;2.37;;;16.00;1.00;;;;;;5486255;26;20518;-43
2024/04/15 10:42:09;;;;;;;5.70;2.70;;;16.00;1.00;;;;;;5490882;26;20931;-43
2024/04/15 10:44:35;;;;;;;4.67;2.73;;;15.70;1.00;;;;;;5488904;26;20453;-44
2024/04/15 10:47:01;;;;;;;5.87;2.67;;;15.70;99.90;;;;;;5492128;26;20437;-43
2024/04/15 10:49:28;;;;;;;3.53;2.70;;;15.70;99.90;;;;;;5493497;26;20774;-43
2024/04/15 10:51:54;;;;;;;3.97;2.80;;;15.80;99.90;;;;;;5494353;26;20710;-44
2024/04/15 10:54:20;;;;;;;5.57;3.20;;;15.80;99.90;;;;;;5493748;26;20450;-44
2024/04/15 10:56:46;;;;;;;3.20;2.60;;;15.80;99.90;;;;;;5493119;26;20528;-43
2024/04/15 10:59:15;;;;;;;5.17;2.67;;;16.00;96.80;;;;;;5493135;26;20228;-44
2024/04/15 11:01:47;;;;;;;4.93;2.20;;;16.20;16.40;;;;;;5488275;26;20434;-43
2024/04/15 11:04:13;;;;;;;4.83;2.57;;;16.30;1.00;;;;;;5458805;26;20559;-43
2024/04/15 11:06:39;;;;;;;4.57;2.80;;;16.50;1.00;;;;;;5489355;26;20457;-44
2024/04/15 11:09:05;;;;;;;3.33;2.40;;;16.40;99.90;;;;;;5487780;26;20461;-45
2024/04/15 11:11:32;;;;;;;5.43;2.70;;;16.50;99.90;;;;;;5485706;26;20784;-42
2024/04/15 11:13:58;;;;;;;3.30;2.50;;;16.50;1.00;;;;;;5457631;26;20450;-46
2024/04/15 11:16:24;;;;;;;3.03;2.50;;;16.60;99.90;;;;;;5487039;26;20446;-46
2024/04/15 11:18:50;;;;;;;4.57;2.77;;;16.60;99.90;;;;;;5488104;26;20244;-43
2024/04/15 11:21:16;;;;;;;3.97;2.30;;;16.30;99.90;;;;;;5527329;26;20467;-42
2024/04/15 11:23:42;;;;;;;4.60;2.70;;;16.30;99.90;;;;;;5526292;26;20452;-44
2024/04/15 11:26:09;;;;;;;7.33;2.97;;;16.20;99.90;;;;;;5496841;26;20768;-42
2024/04/15 11:28:35;;;;;;;4.63;2.40;;;16.10;99.90;;;;;;5492765;26;20649;-42
2024/04/15 11:31:01;;;;;;;4.03;2.90;;;16.00;1.00;;;;;;5529172;26;20452;-43
2024/04/15 11:33:27;;;;;;;3.47;2.53;;;15.90;7.50;;;;;;5526191;26;20870;-42
2024/04/15 11:35:53;;;;;;;4.70;2.63;;;15.50;99.90;;;;;;5495314;26;20846;-43
2024/04/15 11:38:24;;;;;;;3.50;2.67;;;15.10;1.00;;;;;;5524356;26;20460;-45
2024/04/15 11:40:53;;;;;;;5.93;3.47;;;14.80;1.00;;;;;;5526237;26;20562;-42
2024/04/15 11:43:19;;;;;;;5.33;3.30;;;14.60;99.90;;;;;;5528469;26;20457;-41
2024/04/15 11:45:52;;;;;;;8.13;3.40;;;14.60;1.00;;;;;;5525302;26;20499;-42
2024/04/15 11:48:19;;;;;;;3.27;2.97;;;14.60;1.00;;;;;;5526854;26;20723;-44
2024/04/15 11:50:47;;;;;;;4.70;4.07;;;14.60;1.00;;;;;;5526599;26;20874;-43
2024/04/15 11:53:12;;;;;;;6.40;3.63;;;14.50;1.00;;;;;;5525035;26;20440;-43
2024/04/15 11:55:38;;;;;;;3.73;3.30;;;14.60;1.00;;;;;;5528226;26;20436;-43
2024/04/15 11:58:05;;;;;;;4.20;3.03;;;14.70;1.00;;;;;;5523656;26;20232;-40
2024/04/15 12:00:31;;;;;;;5.30;3.40;;;14.80;1.00;;;;;;5461622;26;20243;-43
2024/04/15 12:02:56;;;;;;;3.50;3.20;;;14.90;1.00;;;;;;5526064;26;20574;-45
2024/04/15 12:05:26;;;;;;;4.90;2.90;;;15.00;1.00;;;;;;5527999;26;20224;-42
2024/04/15 12:07:51;;;;;;;7.23;3.70;;;15.20;1.00;;;;;;5495118;26;20227;-49
2024/04/15 12:10:17;;;;;;;5.97;3.30;;;15.20;99.90;;;;;;5527086;26;20520;-43
2024/04/15 12:12:42;;;;;;;5.40;3.83;;;15.30;1.00;;;;;;5529766;26;20270;-43
2024/04/15 12:15:11;;;;;;;6.57;4.03;;;15.30;99.90;;;;;;5520810;26;20534;-43
2024/04/15 12:17:37;;;;;;;5.80;3.30;;;15.30;1.00;;;;;;5461160;26;20236;-43
2024/04/15 12:20:04;;;;;;;6.70;3.63;;;15.50;1.00;;;;;;5491854;26;20542;-43
2024/04/15 12:22:30;;;;;;;6.50;3.37;;;15.70;99.90;;;;;;5490313;26;20523;-44
2024/04/15 12:24:56;;;;;;;7.00;3.30;;;16.20;1.00;;;;;;5459077;26;20466;-42
2024/04/15 12:27:21;;;;;;;8.47;3.60;;;16.50;1.00;;;;;;5491505;26;20974;-46
2024/04/15 12:29:47;;;;;;;6.80;3.47;;;16.80;99.90;;;;;;5492026;26;20240;-42
2024/04/15 12:32:12;;;;;;;5.53;3.83;;;16.60;1.00;;;;;;5491099;26;20216;-43
2024/04/15 12:34:38;;;;;;;4.27;3.03;;;16.50;99.90;;;;;;5492838;26;20213;-43
2024/04/15 12:37:03;;;;;;;5.20;3.20;;;16.40;1.00;;;;;;5493057;26;20271;-42
2024/04/15 12:39:29;;;;;;;3.57;3.23;;;16.00;1.00;;;;;;5431901;26;20245;-43
2024/04/15 12:41:55;;;;;;;7.57;3.83;;;15.90;1.00;;;;;;5460000;26;20267;-43
2024/04/15 12:44:24;;;;;;;7.30;3.50;;;15.80;99.90;;;;;;5493678;26;20275;-42
2024/04/15 12:46:50;;;;;;;5.40;4.00;;;15.80;1.00;;;;;;5490269;26;20645;-44
2024/04/15 12:49:16;;;;;;;5.63;3.87;;;15.90;1.00;;;;;;5490806;26;20457;-42